sensor_id;sensor_type;location;lat;lon;timestamp;P1;durP1;ratioP1;P2;durP2;ratioP2
80425;SDS011;69766;51.476;5.704;2023-06-10T00:00:50;10.45;;;8.00;;
80425;SDS011;69766;51.476;5.704;2023-06-10T00:03:16;10.65;;;7.78;;
80425;SDS011;69766;51.476;5.704;2023-06-10T00:05:42;11.18;;;7.25;;
80425;SDS011;69766;51.476;5.704;2023-06-10T00:08:08;12.50;;;8.70;;
80425;SDS011;69766;51.476;5.704;2023-06-10T00:10:36;10.30;;;7.70;;
80425;SDS011;69766;51.476;5.704;2023-06-10T00:13:04;11.13;;;7.88;;
80425;SDS011;69766;51.476;5.704;2023-06-10T00:15:33;9.32;;;7.85;;
80425;SDS011;69766;51.476;5.704;2023-06-10T00:18:00;10.15;;;7.78;;
80425;SDS011;69766;51.476;5.704;2023-06-10T00:20:27;10.60;;;7.65;;
80425;SDS011;69766;51.476;5.704;2023-06-10T00:22:53;15.48;;;8.65;;
80425;SDS011;69766;51.476;5.704;2023-06-10T00:25:18;9.35;;;7.30;;
80425;SDS011;69766;51.476;5.704;2023-06-10T00:27:44;11.43;;;8.15;;
80425;SDS011;69766;51.476;5.704;2023-06-10T00:30:10;11.55;;;8.32;;
80425;SDS011;69766;51.476;5.704;2023-06-10T00:32:36;9.27;;;7.45;;
80425;SDS011;69766;51.476;5.704;2023-06-10T00:35:03;11.95;;;8.80;;
80425;SDS011;69766;51.476;5.704;2023-06-10T00:37:29;12.00;;;7.93;;
80425;SDS011;69766;51.476;5.704;2023-06-10T00:39:55;12.02;;;8.63;;
80425;SDS011;69766;51.476;5.704;2023-06-10T00:42:21;11.23;;;7.95;;
80425;SDS011;69766;51.476;5.704;2023-06-10T00:44:49;10.25;;;8.32;;
80425;SDS011;69766;51.476;5.704;2023-06-10T00:47:18;12.90;;;8.60;;
80425;SDS011;69766;51.476;5.704;2023-06-10T00:49:45;11.20;;;8.48;;
80425;SDS011;69766;51.476;5.704;2023-06-10T00:52:11;12.30;;;8.73;;
80425;SDS011;69766;51.476;5.704;2023-06-10T00:54:37;12.02;;;8.77;;
80425;SDS011;69766;51.476;5.704;2023-06-10T00:57:04;13.35;;;8.02;;
80425;SDS011;69766;51.476;5.704;2023-06-10T00:59:30;10.57;;;8.13;;
80425;SDS011;69766;51.476;5.704;2023-06-10T01:01:57;12.07;;;8.52;;
80425;SDS011;69766;51.476;5.704;2023-06-10T01:04:22;13.20;;;8.45;;
80425;SDS011;69766;51.476;5.704;2023-06-10T01:12:19;11.85;;;8.32;;
80425;SDS011;69766;51.476;5.704;2023-06-10T01:14:58;11.90;;;8.95;;
80425;SDS011;69766;51.476;5.704;2023-06-10T01:17:25;12.52;;;9.63;;
80425;SDS011;69766;51.476;5.704;2023-06-10T01:19:55;12.57;;;9.50;;
80425;SDS011;69766;51.476;5.704;2023-06-10T01:22:22;14.03;;;9.93;;
80425;SDS011;69766;51.476;5.704;2023-06-10T01:24:57;14.20;;;10.25;;
80425;SDS011;69766;51.476;5.704;2023-06-10T01:27:24;13.90;;;9.98;;
80425;SDS011;69766;51.476;5.704;2023-06-10T01:30:04;14.77;;;9.60;;
80425;SDS011;69766;51.476;5.704;2023-06-10T01:32:48;13.93;;;10.48;;
80425;SDS011;69766;51.476;5.704;2023-06-10T01:35:16;13.23;;;9.77;;
80425;SDS011;69766;51.476;5.704;2023-06-10T01:37:45;12.05;;;9.77;;
80425;SDS011;69766;51.476;5.704;2023-06-10T01:40:12;13.73;;;11.00;;
80425;SDS011;69766;51.476;5.704;2023-06-10T01:42:39;14.60;;;10.82;;
80425;SDS011;69766;51.476;5.704;2023-06-10T01:45:05;13.38;;;10.23;;
80425;SDS011;69766;51.476;5.704;2023-06-10T01:47:31;12.75;;;10.13;;
80425;SDS011;69766;51.476;5.704;2023-06-10T01:49:57;15.25;;;11.50;;
80425;SDS011;69766;51.476;5.704;2023-06-10T01:52:23;14.93;;;11.13;;
80425;SDS011;69766;51.476;5.704;2023-06-10T01:54:48;11.75;;;10.20;;
80425;SDS011;69766;51.476;5.704;2023-06-10T01:57:14;14.38;;;10.48;;
80425;SDS011;69766;51.476;5.704;2023-06-10T01:59:40;16.45;;;11.43;;
80425;SDS011;69766;51.476;5.704;2023-06-10T02:02:09;14.65;;;10.52;;
80425;SDS011;69766;51.476;5.704;2023-06-10T02:04:35;11.93;;;10.52;;
80425;SDS011;69766;51.476;5.704;2023-06-10T02:07:00;15.45;;;11.45;;
80425;SDS011;69766;51.476;5.704;2023-06-10T02:09:28;15.25;;;10.75;;
80425;SDS011;69766;51.476;5.704;2023-06-10T02:12:00;12.48;;;10.73;;
80425;SDS011;69766;51.476;5.704;2023-06-10T02:14:27;13.07;;;11.07;;
80425;SDS011;69766;51.476;5.704;2023-06-10T02:16:52;15.15;;;10.63;;
80425;SDS011;69766;51.476;5.704;2023-06-10T02:19:21;12.70;;;10.43;;
80425;SDS011;69766;51.476;5.704;2023-06-10T02:21:48;11.63;;;9.82;;
80425;SDS011;69766;51.476;5.704;2023-06-10T02:24:14;14.07;;;11.30;;
80425;SDS011;69766;51.476;5.704;2023-06-10T02:26:40;15.07;;;10.70;;
80425;SDS011;69766;51.476;5.704;2023-06-10T02:29:05;15.40;;;11.80;;
80425;SDS011;69766;51.476;5.704;2023-06-10T02:31:31;16.73;;;11.25;;
80425;SDS011;69766;51.476;5.704;2023-06-10T02:33:58;14.77;;;11.27;;
80425;SDS011;69766;51.476;5.704;2023-06-10T02:36:24;15.40;;;11.85;;
80425;SDS011;69766;51.476;5.704;2023-06-10T02:38:53;13.93;;;11.15;;
80425;SDS011;69766;51.476;5.704;2023-06-10T02:41:19;14.90;;;11.52;;
80425;SDS011;69766;51.476;5.704;2023-06-10T02:43:46;14.00;;;11.20;;
80425;SDS011;69766;51.476;5.704;2023-06-10T02:46:12;14.63;;;11.48;;
80425;SDS011;69766;51.476;5.704;2023-06-10T02:48:42;13.35;;;11.13;;
80425;SDS011;69766;51.476;5.704;2023-06-10T02:51:11;14.75;;;12.77;;
80425;SDS011;69766;51.476;5.704;2023-06-10T02:53:36;16.65;;;12.63;;
80425;SDS011;69766;51.476;5.704;2023-06-10T02:56:02;13.55;;;11.60;;
80425;SDS011;69766;51.476;5.704;2023-06-10T02:58:28;15.23;;;12.13;;
80425;SDS011;69766;51.476;5.704;2023-06-10T03:00:54;15.00;;;12.25;;
80425;SDS011;69766;51.476;5.704;2023-06-10T03:03:19;15.32;;;12.82;;
80425;SDS011;69766;51.476;5.704;2023-06-10T03:05:47;15.90;;;12.38;;
80425;SDS011;69766;51.476;5.704;2023-06-10T03:08:13;16.80;;;12.40;;
80425;SDS011;69766;51.476;5.704;2023-06-10T03:10:39;16.77;;;12.32;;
80425;SDS011;69766;51.476;5.704;2023-06-10T03:13:04;16.30;;;12.50;;
80425;SDS011;69766;51.476;5.704;2023-06-10T03:15:30;16.17;;;12.65;;
80425;SDS011;69766;51.476;5.704;2023-06-10T03:17:58;17.90;;;12.52;;
80425;SDS011;69766;51.476;5.704;2023-06-10T03:20:27;15.88;;;12.95;;
80425;SDS011;69766;51.476;5.704;2023-06-10T03:22:53;15.77;;;13.02;;
80425;SDS011;69766;51.476;5.704;2023-06-10T03:25:19;16.83;;;13.60;;
80425;SDS011;69766;51.476;5.704;2023-06-10T03:27:45;18.50;;;13.77;;
80425;SDS011;69766;51.476;5.704;2023-06-10T03:30:12;18.88;;;14.32;;
80425;SDS011;69766;51.476;5.704;2023-06-10T03:32:38;19.35;;;14.00;;
80425;SDS011;69766;51.476;5.704;2023-06-10T03:35:06;19.27;;;14.75;;
80425;SDS011;69766;51.476;5.704;2023-06-10T03:37:32;20.60;;;14.45;;
80425;SDS011;69766;51.476;5.704;2023-06-10T03:39:58;18.13;;;14.63;;
80425;SDS011;69766;51.476;5.704;2023-06-10T03:42:23;18.02;;;14.43;;
80425;SDS011;69766;51.476;5.704;2023-06-10T03:44:50;18.27;;;14.35;;
80425;SDS011;69766;51.476;5.704;2023-06-10T03:47:15;19.45;;;15.25;;
80425;SDS011;69766;51.476;5.704;2023-06-10T03:49:41;17.25;;;15.27;;
80425;SDS011;69766;51.476;5.704;2023-06-10T03:52:07;21.25;;;15.32;;
80425;SDS011;69766;51.476;5.704;2023-06-10T03:54:33;19.17;;;15.40;;
80425;SDS011;69766;51.476;5.704;2023-06-10T03:56:59;17.45;;;14.98;;
80425;SDS011;69766;51.476;5.704;2023-06-10T03:59:25;21.65;;;16.20;;
80425;SDS011;69766;51.476;5.704;2023-06-10T04:01:51;19.27;;;15.73;;
80425;SDS011;69766;51.476;5.704;2023-06-10T04:04:17;20.15;;;16.05;;
80425;SDS011;69766;51.476;5.704;2023-06-10T04:06:43;19.50;;;15.23;;
80425;SDS011;69766;51.476;5.704;2023-06-10T04:09:09;24.33;;;16.25;;
80425;SDS011;69766;51.476;5.704;2023-06-10T04:11:35;19.55;;;14.98;;
80425;SDS011;69766;51.476;5.704;2023-06-10T04:14:01;19.52;;;15.50;;
80425;SDS011;69766;51.476;5.704;2023-06-10T04:16:28;20.48;;;16.00;;
80425;SDS011;69766;51.476;5.704;2023-06-10T04:18:53;24.02;;;16.40;;
80425;SDS011;69766;51.476;5.704;2023-06-10T04:21:19;20.15;;;16.45;;
80425;SDS011;69766;51.476;5.704;2023-06-10T04:23:45;20.55;;;15.50;;
80425;SDS011;69766;51.476;5.704;2023-06-10T04:26:11;25.58;;;16.77;;
80425;SDS011;69766;51.476;5.704;2023-06-10T04:28:37;21.00;;;16.52;;
80425;SDS011;69766;51.476;5.704;2023-06-10T04:31:03;22.60;;;17.60;;
80425;SDS011;69766;51.476;5.704;2023-06-10T04:33:29;20.38;;;16.92;;
80425;SDS011;69766;51.476;5.704;2023-06-10T04:35:55;21.95;;;16.73;;
80425;SDS011;69766;51.476;5.704;2023-06-10T04:38:21;20.55;;;16.55;;
80425;SDS011;69766;51.476;5.704;2023-06-10T04:40:46;20.27;;;15.95;;
80425;SDS011;69766;51.476;5.704;2023-06-10T04:43:13;23.10;;;16.20;;
80425;SDS011;69766;51.476;5.704;2023-06-10T04:45:38;20.50;;;16.05;;
80425;SDS011;69766;51.476;5.704;2023-06-10T04:48:04;19.88;;;15.75;;
80425;SDS011;69766;51.476;5.704;2023-06-10T04:50:30;21.95;;;16.13;;
80425;SDS011;69766;51.476;5.704;2023-06-10T04:52:58;19.15;;;15.18;;
80425;SDS011;69766;51.476;5.704;2023-06-10T04:55:24;18.40;;;14.73;;
80425;SDS011;69766;51.476;5.704;2023-06-10T04:57:50;18.58;;;14.82;;
80425;SDS011;69766;51.476;5.704;2023-06-10T05:00:16;17.90;;;14.60;;
80425;SDS011;69766;51.476;5.704;2023-06-10T05:02:43;18.17;;;13.77;;
80425;SDS011;69766;51.476;5.704;2023-06-10T05:05:09;18.75;;;15.60;;
80425;SDS011;69766;51.476;5.704;2023-06-10T05:07:36;20.98;;;15.07;;
80425;SDS011;69766;51.476;5.704;2023-06-10T05:10:01;21.60;;;14.75;;
80425;SDS011;69766;51.476;5.704;2023-06-10T05:12:28;17.98;;;14.35;;
80425;SDS011;69766;51.476;5.704;2023-06-10T05:14:53;20.70;;;14.52;;
80425;SDS011;69766;51.476;5.704;2023-06-10T05:17:20;17.20;;;13.40;;
80425;SDS011;69766;51.476;5.704;2023-06-10T05:19:45;21.58;;;14.50;;
80425;SDS011;69766;51.476;5.704;2023-06-10T05:22:12;20.45;;;14.18;;
80425;SDS011;69766;51.476;5.704;2023-06-10T05:24:38;16.92;;;13.98;;
80425;SDS011;69766;51.476;5.704;2023-06-10T05:27:04;17.30;;;13.70;;
80425;SDS011;69766;51.476;5.704;2023-06-10T05:29:34;17.63;;;14.20;;
80425;SDS011;69766;51.476;5.704;2023-06-10T05:31:59;20.75;;;14.30;;
80425;SDS011;69766;51.476;5.704;2023-06-10T05:34:28;19.48;;;13.88;;
80425;SDS011;69766;51.476;5.704;2023-06-10T05:36:54;16.80;;;13.05;;
80425;SDS011;69766;51.476;5.704;2023-06-10T05:39:20;20.08;;;13.63;;
80425;SDS011;69766;51.476;5.704;2023-06-10T05:41:45;17.52;;;12.98;;
80425;SDS011;69766;51.476;5.704;2023-06-10T05:44:11;17.25;;;12.77;;
80425;SDS011;69766;51.476;5.704;2023-06-10T05:46:40;18.00;;;12.85;;
80425;SDS011;69766;51.476;5.704;2023-06-10T05:49:06;16.25;;;13.07;;
80425;SDS011;69766;51.476;5.704;2023-06-10T05:51:31;21.55;;;13.85;;
80425;SDS011;69766;51.476;5.704;2023-06-10T05:53:57;19.63;;;13.05;;
80425;SDS011;69766;51.476;5.704;2023-06-10T05:56:23;15.57;;;12.35;;
80425;SDS011;69766;51.476;5.704;2023-06-10T05:58:49;15.65;;;13.05;;
80425;SDS011;69766;51.476;5.704;2023-06-10T06:01:15;17.88;;;12.25;;
80425;SDS011;69766;51.476;5.704;2023-06-10T06:03:40;17.23;;;12.13;;
80425;SDS011;69766;51.476;5.704;2023-06-10T06:06:06;14.52;;;11.43;;
80425;SDS011;69766;51.476;5.704;2023-06-10T06:08:32;20.25;;;12.63;;
80425;SDS011;69766;51.476;5.704;2023-06-10T06:10:57;16.67;;;13.07;;
80425;SDS011;69766;51.476;5.704;2023-06-10T06:13:23;20.05;;;12.40;;
80425;SDS011;69766;51.476;5.704;2023-06-10T06:15:49;18.02;;;11.30;;
80425;SDS011;69766;51.476;5.704;2023-06-10T06:18:15;17.92;;;11.80;;
80425;SDS011;69766;51.476;5.704;2023-06-10T06:20:41;15.52;;;11.82;;
80425;SDS011;69766;51.476;5.704;2023-06-10T06:23:06;15.48;;;11.13;;
80425;SDS011;69766;51.476;5.704;2023-06-10T06:25:34;20.67;;;11.90;;
80425;SDS011;69766;51.476;5.704;2023-06-10T06:28:01;17.98;;;11.65;;
80425;SDS011;69766;51.476;5.704;2023-06-10T06:30:27;14.63;;;10.95;;
80425;SDS011;69766;51.476;5.704;2023-06-10T06:32:52;14.63;;;10.95;;
80425;SDS011;69766;51.476;5.704;2023-06-10T06:35:18;17.35;;;10.70;;
80425;SDS011;69766;51.476;5.704;2023-06-10T06:37:44;15.20;;;10.77;;
80425;SDS011;69766;51.476;5.704;2023-06-10T06:40:10;18.42;;;10.70;;
80425;SDS011;69766;51.476;5.704;2023-06-10T06:42:36;14.30;;;9.57;;
80425;SDS011;69766;51.476;5.704;2023-06-10T06:45:01;15.73;;;9.40;;
80425;SDS011;69766;51.476;5.704;2023-06-10T06:47:27;15.68;;;10.30;;
80425;SDS011;69766;51.476;5.704;2023-06-10T06:49:53;12.30;;;9.02;;
80425;SDS011;69766;51.476;5.704;2023-06-10T06:52:18;13.32;;;9.73;;
80425;SDS011;69766;51.476;5.704;2023-06-10T06:54:44;14.35;;;9.10;;
80425;SDS011;69766;51.476;5.704;2023-06-10T06:57:10;10.10;;;7.75;;
80425;SDS011;69766;51.476;5.704;2023-06-10T06:59:36;11.20;;;8.35;;
80425;SDS011;69766;51.476;5.704;2023-06-10T07:02:02;13.82;;;8.93;;
80425;SDS011;69766;51.476;5.704;2023-06-10T07:04:28;13.98;;;8.98;;
80425;SDS011;69766;51.476;5.704;2023-06-10T07:06:54;15.15;;;8.52;;
80425;SDS011;69766;51.476;5.704;2023-06-10T07:09:20;15.18;;;7.65;;
80425;SDS011;69766;51.476;5.704;2023-06-10T07:11:46;11.35;;;8.00;;
80425;SDS011;69766;51.476;5.704;2023-06-10T07:14:12;13.05;;;8.65;;
80425;SDS011;69766;51.476;5.704;2023-06-10T07:16:38;10.55;;;8.23;;
80425;SDS011;69766;51.476;5.704;2023-06-10T07:19:03;10.85;;;7.25;;
80425;SDS011;69766;51.476;5.704;2023-06-10T07:21:30;13.02;;;7.75;;
80425;SDS011;69766;51.476;5.704;2023-06-10T07:23:57;12.40;;;7.32;;
80425;SDS011;69766;51.476;5.704;2023-06-10T07:26:23;10.57;;;6.38;;
80425;SDS011;69766;51.476;5.704;2023-06-10T07:28:48;11.05;;;6.75;;
80425;SDS011;69766;51.476;5.704;2023-06-10T07:31:14;11.05;;;6.65;;
80425;SDS011;69766;51.476;5.704;2023-06-10T07:33:40;8.63;;;6.22;;
80425;SDS011;69766;51.476;5.704;2023-06-10T07:36:06;11.40;;;6.55;;
80425;SDS011;69766;51.476;5.704;2023-06-10T07:38:32;11.80;;;6.80;;
80425;SDS011;69766;51.476;5.704;2023-06-10T07:40:59;12.10;;;6.53;;
80425;SDS011;69766;51.476;5.704;2023-06-10T07:43:24;11.65;;;6.60;;
80425;SDS011;69766;51.476;5.704;2023-06-10T07:45:50;9.95;;;6.28;;
80425;SDS011;69766;51.476;5.704;2023-06-10T07:48:16;9.80;;;6.25;;
80425;SDS011;69766;51.476;5.704;2023-06-10T07:50:42;9.63;;;6.63;;
80425;SDS011;69766;51.476;5.704;2023-06-10T07:53:08;10.63;;;5.53;;
80425;SDS011;69766;51.476;5.704;2023-06-10T07:55:33;9.27;;;6.22;;
80425;SDS011;69766;51.476;5.704;2023-06-10T07:57:59;8.35;;;5.68;;
80425;SDS011;69766;51.476;5.704;2023-06-10T08:00:25;8.25;;;5.70;;
80425;SDS011;69766;51.476;5.704;2023-06-10T08:02:51;9.75;;;6.05;;
80425;SDS011;69766;51.476;5.704;2023-06-10T08:05:17;8.20;;;5.70;;
80425;SDS011;69766;51.476;5.704;2023-06-10T08:07:42;9.25;;;6.05;;
80425;SDS011;69766;51.476;5.704;2023-06-10T08:10:10;9.20;;;6.47;;
80425;SDS011;69766;51.476;5.704;2023-06-10T08:12:36;10.43;;;6.50;;
80425;SDS011;69766;51.476;5.704;2023-06-10T08:15:02;10.95;;;5.72;;
80425;SDS011;69766;51.476;5.704;2023-06-10T08:17:30;7.78;;;6.07;;
80425;SDS011;69766;51.476;5.704;2023-06-10T08:19:56;8.57;;;5.80;;
80425;SDS011;69766;51.476;5.704;2023-06-10T08:22:21;11.43;;;6.60;;
80425;SDS011;69766;51.476;5.704;2023-06-10T08:24:47;8.20;;;6.15;;
80425;SDS011;69766;51.476;5.704;2023-06-10T08:27:13;8.23;;;5.07;;
80425;SDS011;69766;51.476;5.704;2023-06-10T08:29:39;9.70;;;6.10;;
80425;SDS011;69766;51.476;5.704;2023-06-10T08:32:05;8.45;;;5.47;;
80425;SDS011;69766;51.476;5.704;2023-06-10T08:34:34;7.80;;;5.68;;
80425;SDS011;69766;51.476;5.704;2023-06-10T08:37:01;7.05;;;5.15;;
80425;SDS011;69766;51.476;5.704;2023-06-10T08:39:27;9.20;;;5.50;;
80425;SDS011;69766;51.476;5.704;2023-06-10T08:42:04;8.55;;;5.43;;
80425;SDS011;69766;51.476;5.704;2023-06-10T08:44:55;8.05;;;5.20;;
80425;SDS011;69766;51.476;5.704;2023-06-10T08:47:22;9.48;;;5.15;;
80425;SDS011;69766;51.476;5.704;2023-06-10T08:49:49;8.50;;;5.30;;
80425;SDS011;69766;51.476;5.704;2023-06-10T08:52:21;6.30;;;4.93;;
80425;SDS011;69766;51.476;5.704;2023-06-10T08:54:59;10.02;;;5.50;;
80425;SDS011;69766;51.476;5.704;2023-06-10T08:57:37;9.68;;;5.88;;
80425;SDS011;69766;51.476;5.704;2023-06-10T09:00:03;9.23;;;5.72;;
80425;SDS011;69766;51.476;5.704;2023-06-10T09:02:52;7.05;;;5.35;;
80425;SDS011;69766;51.476;5.704;2023-06-10T09:05:28;8.88;;;5.25;;
80425;SDS011;69766;51.476;5.704;2023-06-10T09:07:56;8.65;;;5.80;;
80425;SDS011;69766;51.476;5.704;2023-06-10T09:10:25;8.02;;;5.07;;
80425;SDS011;69766;51.476;5.704;2023-06-10T09:12:51;12.93;;;5.90;;
80425;SDS011;69766;51.476;5.704;2023-06-10T09:18:16;10.03;;;5.67;;
80425;SDS011;69766;51.476;5.704;2023-06-10T09:20:42;7.55;;;5.72;;
80425;SDS011;69766;51.476;5.704;2023-06-10T09:23:09;8.85;;;5.80;;
80425;SDS011;69766;51.476;5.704;2023-06-10T09:25:35;10.60;;;6.60;;
80425;SDS011;69766;51.476;5.704;2023-06-10T09:28:02;7.88;;;5.85;;
80425;SDS011;69766;51.476;5.704;2023-06-10T09:30:30;6.88;;;5.50;;
80425;SDS011;69766;51.476;5.704;2023-06-10T09:33:08;9.60;;;6.00;;
80425;SDS011;69766;51.476;5.704;2023-06-10T09:35:44;7.75;;;5.18;;
80425;SDS011;69766;51.476;5.704;2023-06-10T09:38:11;8.57;;;5.78;;
80425;SDS011;69766;51.476;5.704;2023-06-10T09:40:53;6.35;;;5.20;;
80425;SDS011;69766;51.476;5.704;2023-06-10T09:43:23;6.13;;;4.85;;
80425;SDS011;69766;51.476;5.704;2023-06-10T09:46:03;9.45;;;5.47;;
80425;SDS011;69766;51.476;5.704;2023-06-10T09:48:28;10.15;;;6.05;;
80425;SDS011;69766;51.476;5.704;2023-06-10T09:50:54;9.20;;;5.80;;
80425;SDS011;69766;51.476;5.704;2023-06-10T09:53:20;9.15;;;5.85;;
80425;SDS011;69766;51.476;5.704;2023-06-10T09:55:46;9.07;;;5.72;;
80425;SDS011;69766;51.476;5.704;2023-06-10T10:01:11;5.72;;;4.88;;
80425;SDS011;69766;51.476;5.704;2023-06-10T10:03:44;8.20;;;5.25;;
80425;SDS011;69766;51.476;5.704;2023-06-10T10:06:14;7.10;;;5.22;;
80425;SDS011;69766;51.476;5.704;2023-06-10T10:08:41;8.05;;;5.50;;
80425;SDS011;69766;51.476;5.704;2023-06-10T10:11:07;9.57;;;5.22;;
80425;SDS011;69766;51.476;5.704;2023-06-10T10:13:33;8.52;;;4.88;;
80425;SDS011;69766;51.476;5.704;2023-06-10T10:16:02;10.18;;;5.53;;
80425;SDS011;69766;51.476;5.704;2023-06-10T10:18:41;9.63;;;5.93;;
80425;SDS011;69766;51.476;5.704;2023-06-10T10:21:12;8.23;;;5.50;;
80425;SDS011;69766;51.476;5.704;2023-06-10T10:24:01;9.35;;;5.25;;
80425;SDS011;69766;51.476;5.704;2023-06-10T10:26:33;8.27;;;5.43;;
80425;SDS011;69766;51.476;5.704;2023-06-10T10:31:53;10.75;;;6.18;;
80425;SDS011;69766;51.476;5.704;2023-06-10T10:34:22;9.90;;;6.57;;
80425;SDS011;69766;51.476;5.704;2023-06-10T10:36:55;7.53;;;5.65;;
80425;SDS011;69766;51.476;5.704;2023-06-10T10:44:50;7.55;;;5.60;;
80425;SDS011;69766;51.476;5.704;2023-06-10T10:47:16;5.57;;;4.93;;
80425;SDS011;69766;51.476;5.704;2023-06-10T10:49:48;7.82;;;5.60;;
80425;SDS011;69766;51.476;5.704;2023-06-10T10:52:18;8.73;;;5.10;;
80425;SDS011;69766;51.476;5.704;2023-06-10T10:54:47;8.60;;;5.50;;
80425;SDS011;69766;51.476;5.704;2023-06-10T10:57:14;7.40;;;5.80;;
80425;SDS011;69766;51.476;5.704;2023-06-10T11:05:18;8.88;;;5.80;;
80425;SDS011;69766;51.476;5.704;2023-06-10T11:08:13;10.75;;;5.53;;
80425;SDS011;69766;51.476;5.704;2023-06-10T11:10:46;7.00;;;4.97;;
80425;SDS011;69766;51.476;5.704;2023-06-10T11:13:20;7.88;;;4.93;;
80425;SDS011;69766;51.476;5.704;2023-06-10T11:15:48;7.13;;;4.90;;
80425;SDS011;69766;51.476;5.704;2023-06-10T11:20:51;6.13;;;4.93;;
80425;SDS011;69766;51.476;5.704;2023-06-10T11:34:20;7.45;;;4.60;;
80425;SDS011;69766;51.476;5.704;2023-06-10T11:36:52;10.23;;;5.28;;
80425;SDS011;69766;51.476;5.704;2023-06-10T11:42:06;8.63;;;5.50;;
80425;SDS011;69766;51.476;5.704;2023-06-10T11:44:35;7.45;;;5.45;;
80425;SDS011;69766;51.476;5.704;2023-06-10T11:47:04;7.45;;;4.82;;
80425;SDS011;69766;51.476;5.704;2023-06-10T11:49:30;8.90;;;5.20;;
80425;SDS011;69766;51.476;5.704;2023-06-10T11:51:56;8.57;;;4.90;;
80425;SDS011;69766;51.476;5.704;2023-06-10T11:54:22;7.57;;;5.35;;
80425;SDS011;69766;51.476;5.704;2023-06-10T11:56:47;9.10;;;5.15;;
80425;SDS011;69766;51.476;5.704;2023-06-10T11:59:13;7.80;;;4.90;;
80425;SDS011;69766;51.476;5.704;2023-06-10T12:01:43;6.93;;;5.28;;
80425;SDS011;69766;51.476;5.704;2023-06-10T12:04:11;8.90;;;5.10;;
80425;SDS011;69766;51.476;5.704;2023-06-10T12:06:44;6.85;;;4.93;;
80425;SDS011;69766;51.476;5.704;2023-06-10T12:09:21;7.43;;;5.18;;
80425;SDS011;69766;51.476;5.704;2023-06-10T12:11:53;6.28;;;4.97;;
80425;SDS011;69766;51.476;5.704;2023-06-10T12:20:08;6.18;;;5.15;;
80425;SDS011;69766;51.476;5.704;2023-06-10T12:22:49;8.30;;;5.45;;
80425;SDS011;69766;51.476;5.704;2023-06-10T12:25:17;8.43;;;5.17;;
80425;SDS011;69766;51.476;5.704;2023-06-10T12:27:59;7.30;;;5.45;;
80425;SDS011;69766;51.476;5.704;2023-06-10T12:30:25;7.07;;;5.45;;
80425;SDS011;69766;51.476;5.704;2023-06-10T12:32:52;7.68;;;4.90;;
80425;SDS011;69766;51.476;5.704;2023-06-10T12:35:21;8.68;;;5.53;;
80425;SDS011;69766;51.476;5.704;2023-06-10T12:38:00;9.02;;;5.25;;
80425;SDS011;69766;51.476;5.704;2023-06-10T12:40:39;6.80;;;4.93;;
80425;SDS011;69766;51.476;5.704;2023-06-10T12:43:06;9.68;;;5.65;;
80425;SDS011;69766;51.476;5.704;2023-06-10T12:45:32;7.15;;;4.65;;
80425;SDS011;69766;51.476;5.704;2023-06-10T12:48:06;10.23;;;5.68;;
80425;SDS011;69766;51.476;5.704;2023-06-10T12:50:34;6.25;;;4.70;;
80425;SDS011;69766;51.476;5.704;2023-06-10T12:53:23;9.35;;;5.05;;
80425;SDS011;69766;51.476;5.704;2023-06-10T12:55:51;9.82;;;5.10;;
80425;SDS011;69766;51.476;5.704;2023-06-10T12:58:23;8.43;;;5.03;;
80425;SDS011;69766;51.476;5.704;2023-06-10T13:00:49;6.78;;;4.93;;
80425;SDS011;69766;51.476;5.704;2023-06-10T13:03:17;10.13;;;5.90;;
80425;SDS011;69766;51.476;5.704;2023-06-10T13:05:43;6.25;;;5.00;;
80425;SDS011;69766;51.476;5.704;2023-06-10T13:08:09;7.15;;;5.20;;
80425;SDS011;69766;51.476;5.704;2023-06-10T13:10:35;9.70;;;5.47;;
80425;SDS011;69766;51.476;5.704;2023-06-10T13:13:01;8.35;;;5.28;;
80425;SDS011;69766;51.476;5.704;2023-06-10T13:15:30;9.10;;;5.75;;
80425;SDS011;69766;51.476;5.704;2023-06-10T13:17:57;5.75;;;5.10;;
80425;SDS011;69766;51.476;5.704;2023-06-10T13:20:23;8.68;;;5.53;;
80425;SDS011;69766;51.476;5.704;2023-06-10T13:22:49;8.43;;;4.80;;
80425;SDS011;69766;51.476;5.704;2023-06-10T13:25:15;6.25;;;4.93;;
80425;SDS011;69766;51.476;5.704;2023-06-10T13:27:50;8.52;;;5.68;;
80425;SDS011;69766;51.476;5.704;2023-06-10T13:30:16;7.90;;;4.97;;
80425;SDS011;69766;51.476;5.704;2023-06-10T13:33:02;6.70;;;4.90;;
80425;SDS011;69766;51.476;5.704;2023-06-10T13:35:31;7.13;;;4.63;;
80425;SDS011;69766;51.476;5.704;2023-06-10T13:37:56;10.52;;;5.20;;
80425;SDS011;69766;51.476;5.704;2023-06-10T13:40:22;6.88;;;5.05;;
80425;SDS011;69766;51.476;5.704;2023-06-10T13:42:48;7.22;;;4.97;;
80425;SDS011;69766;51.476;5.704;2023-06-10T13:45:16;6.40;;;5.05;;
80425;SDS011;69766;51.476;5.704;2023-06-10T13:47:42;7.00;;;4.45;;
80425;SDS011;69766;51.476;5.704;2023-06-10T13:50:08;7.22;;;5.40;;
80425;SDS011;69766;51.476;5.704;2023-06-10T13:58:23;6.93;;;5.22;;
80425;SDS011;69766;51.476;5.704;2023-06-10T14:00:49;7.20;;;6.03;;
80425;SDS011;69766;51.476;5.704;2023-06-10T14:03:17;6.25;;;5.18;;
80425;SDS011;69766;51.476;5.704;2023-06-10T14:05:43;8.50;;;5.30;;
80425;SDS011;69766;51.476;5.704;2023-06-10T14:08:09;7.80;;;5.40;;
80425;SDS011;69766;51.476;5.704;2023-06-10T14:10:35;5.60;;;5.03;;
80425;SDS011;69766;51.476;5.704;2023-06-10T14:13:00;6.63;;;5.45;;
80425;SDS011;69766;51.476;5.704;2023-06-10T14:15:30;9.15;;;5.90;;
80425;SDS011;69766;51.476;5.704;2023-06-10T14:17:57;6.75;;;5.43;;
80425;SDS011;69766;51.476;5.704;2023-06-10T14:20:23;9.70;;;5.93;;
80425;SDS011;69766;51.476;5.704;2023-06-10T14:22:50;7.53;;;5.57;;
80425;SDS011;69766;51.476;5.704;2023-06-10T14:25:16;8.80;;;5.70;;
80425;SDS011;69766;51.476;5.704;2023-06-10T14:27:42;7.03;;;5.38;;
80425;SDS011;69766;51.476;5.704;2023-06-10T14:30:08;7.75;;;5.85;;
80425;SDS011;69766;51.476;5.704;2023-06-10T14:32:34;8.02;;;6.07;;
80425;SDS011;69766;51.476;5.704;2023-06-10T14:35:00;7.22;;;5.47;;
80425;SDS011;69766;51.476;5.704;2023-06-10T14:37:26;8.82;;;6.10;;
80425;SDS011;69766;51.476;5.704;2023-06-10T14:39:52;8.73;;;5.55;;
80425;SDS011;69766;51.476;5.704;2023-06-10T14:42:18;8.98;;;6.22;;
80425;SDS011;69766;51.476;5.704;2023-06-10T14:44:43;8.20;;;6.53;;
80425;SDS011;69766;51.476;5.704;2023-06-10T14:47:09;9.68;;;6.68;;
80425;SDS011;69766;51.476;5.704;2023-06-10T14:49:35;9.63;;;5.95;;
80425;SDS011;69766;51.476;5.704;2023-06-10T14:52:01;7.88;;;5.97;;
80425;SDS011;69766;51.476;5.704;2023-06-10T14:54:41;9.40;;;5.70;;
80425;SDS011;69766;51.476;5.704;2023-06-10T14:57:10;9.90;;;6.30;;
80425;SDS011;69766;51.476;5.704;2023-06-10T14:59:36;7.70;;;5.97;;
80425;SDS011;69766;51.476;5.704;2023-06-10T15:02:02;9.95;;;6.40;;
80425;SDS011;69766;51.476;5.704;2023-06-10T15:04:27;8.68;;;6.18;;
80425;SDS011;69766;51.476;5.704;2023-06-10T15:06:53;10.25;;;6.38;;
80425;SDS011;69766;51.476;5.704;2023-06-10T15:09:19;9.10;;;5.90;;
80425;SDS011;69766;51.476;5.704;2023-06-10T15:12:03;7.50;;;6.05;;
80425;SDS011;69766;51.476;5.704;2023-06-10T15:14:30;8.50;;;5.75;;
80425;SDS011;69766;51.476;5.704;2023-06-10T15:16:56;9.70;;;6.10;;
80425;SDS011;69766;51.476;5.704;2023-06-10T15:19:24;8.88;;;6.28;;
80425;SDS011;69766;51.476;5.704;2023-06-10T15:21:53;9.65;;;6.00;;
80425;SDS011;69766;51.476;5.704;2023-06-10T15:24:19;7.70;;;5.82;;
80425;SDS011;69766;51.476;5.704;2023-06-10T15:26:47;11.35;;;6.07;;
80425;SDS011;69766;51.476;5.704;2023-06-10T15:29:13;9.60;;;6.45;;
80425;SDS011;69766;51.476;5.704;2023-06-10T15:31:39;8.63;;;6.40;;